sensor_id;sensor_type;location;lat;lon;timestamp;temperature;humidity
851;DHT22;412;51.400;7.480;2022-07-29T00:00:55;21.90;74.10
851;DHT22;412;51.400;7.480;2022-07-29T00:03:20;22.00;74.00
851;DHT22;412;51.400;7.480;2022-07-29T00:05:46;22.00;73.20
851;DHT22;412;51.400;7.480;2022-07-29T00:08:12;22.00;72.60
851;DHT22;412;51.400;7.480;2022-07-29T00:10:38;22.00;72.30
851;DHT22;412;51.400;7.480;2022-07-29T00:13:04;21.90;72.30
851;DHT22;412;51.400;7.480;2022-07-29T00:15:29;21.90;74.20
851;DHT22;412;51.400;7.480;2022-07-29T00:17:55;21.90;76.80
851;DHT22;412;51.400;7.480;2022-07-29T00:20:21;21.80;74.70
851;DHT22;412;51.400;7.480;2022-07-29T00:22:46;21.80;74.20
851;DHT22;412;51.400;7.480;2022-07-29T00:25:13;21.80;73.70
851;DHT22;412;51.400;7.480;2022-07-29T00:27:39;21.70;73.20
851;DHT22;412;51.400;7.480;2022-07-29T00:30:05;21.70;73.50
851;DHT22;412;51.400;7.480;2022-07-29T00:32:31;21.60;73.70
851;DHT22;412;51.400;7.480;2022-07-29T00:34:57;21.50;74.00
851;DHT22;412;51.400;7.480;2022-07-29T00:37:41;21.50;74.50
851;DHT22;412;51.400;7.480;2022-07-29T00:40:07;21.50;74.60
851;DHT22;412;51.400;7.480;2022-07-29T00:42:44;21.50;74.10
851;DHT22;412;51.400;7.480;2022-07-29T00:45:10;21.40;73.90
851;DHT22;412;51.400;7.480;2022-07-29T00:47:36;21.40;75.10
851;DHT22;412;51.400;7.480;2022-07-29T00:50:04;21.30;73.90
851;DHT22;412;51.400;7.480;2022-07-29T00:52:31;21.40;74.70
851;DHT22;412;51.400;7.480;2022-07-29T00:54:56;21.30;74.20
851;DHT22;412;51.400;7.480;2022-07-29T00:57:24;21.20;74.60
851;DHT22;412;51.400;7.480;2022-07-29T00:59:50;21.20;75.10
851;DHT22;412;51.400;7.480;2022-07-29T01:02:16;21.20;75.00
851;DHT22;412;51.400;7.480;2022-07-29T01:04:41;21.00;75.70
851;DHT22;412;51.400;7.480;2022-07-29T01:07:07;21.00;75.30
851;DHT22;412;51.400;7.480;2022-07-29T01:09:34;21.10;76.50
851;DHT22;412;51.400;7.480;2022-07-29T01:12:01;21.10;76.20
851;DHT22;412;51.400;7.480;2022-07-29T01:14:28;21.10;75.60
851;DHT22;412;51.400;7.480;2022-07-29T01:17:10;21.10;77.10
851;DHT22;412;51.400;7.480;2022-07-29T01:19:56;21.20;78.20
851;DHT22;412;51.400;7.480;2022-07-29T01:31:03;21.20;77.30
851;DHT22;412;51.400;7.480;2022-07-29T01:33:31;21.20;77.50
851;DHT22;412;51.400;7.480;2022-07-29T01:36:32;21.20;77.10
851;DHT22;412;51.400;7.480;2022-07-29T01:39:16;21.20;77.40
851;DHT22;412;51.400;7.480;2022-07-29T01:41:56;21.20;77.60
851;DHT22;412;51.400;7.480;2022-07-29T01:45:08;21.10;77.00
851;DHT22;412;51.400;7.480;2022-07-29T01:50:28;21.00;78.50
851;DHT22;412;51.400;7.480;2022-07-29T01:52:59;20.90;78.20
851;DHT22;412;51.400;7.480;2022-07-29T01:55:29;20.90;78.70
851;DHT22;412;51.400;7.480;2022-07-29T01:57:57;20.90;78.80
851;DHT22;412;51.400;7.480;2022-07-29T02:00:25;20.90;78.80
851;DHT22;412;51.400;7.480;2022-07-29T02:02:53;20.90;78.60
851;DHT22;412;51.400;7.480;2022-07-29T02:05:21;20.90;78.50
851;DHT22;412;51.400;7.480;2022-07-29T02:07:49;20.90;78.40
851;DHT22;412;51.400;7.480;2022-07-29T02:10:18;21.00;79.20
851;DHT22;412;51.400;7.480;2022-07-29T02:12:46;20.90;78.60
851;DHT22;412;51.400;7.480;2022-07-29T02:15:13;20.80;78.70
851;DHT22;412;51.400;7.480;2022-07-29T02:18:25;20.90;79.10
851;DHT22;412;51.400;7.480;2022-07-29T02:20:31;20.90;80.50
851;DHT22;412;51.400;7.480;2022-07-29T02:22:59;20.90;81.50
851;DHT22;412;51.400;7.480;2022-07-29T02:25:26;20.90;82.20
851;DHT22;412;51.400;7.480;2022-07-29T02:27:53;20.90;83.10
851;DHT22;412;51.400;7.480;2022-07-29T02:30:22;20.90;83.40
851;DHT22;412;51.400;7.480;2022-07-29T02:32:48;20.90;82.50
851;DHT22;412;51.400;7.480;2022-07-29T02:35:16;20.80;80.90
851;DHT22;412;51.400;7.480;2022-07-29T02:37:45;20.60;80.50
851;DHT22;412;51.400;7.480;2022-07-29T02:40:34;20.40;80.90
851;DHT22;412;51.400;7.480;2022-07-29T02:43:03;20.20;81.60
851;DHT22;412;51.400;7.480;2022-07-29T02:45:32;20.10;82.10
851;DHT22;412;51.400;7.480;2022-07-29T02:48:00;20.10;82.30
851;DHT22;412;51.400;7.480;2022-07-29T02:50:33;20.00;82.90
851;DHT22;412;51.400;7.480;2022-07-29T02:53:15;20.00;84.10
851;DHT22;412;51.400;7.480;2022-07-29T02:55:50;20.10;84.00
851;DHT22;412;51.400;7.480;2022-07-29T02:58:31;20.10;84.20
851;DHT22;412;51.400;7.480;2022-07-29T03:01:01;20.20;86.00
851;DHT22;412;51.400;7.480;2022-07-29T03:03:30;20.20;85.70
851;DHT22;412;51.400;7.480;2022-07-29T03:06:00;20.20;83.50
851;DHT22;412;51.400;7.480;2022-07-29T03:08:27;20.20;83.50
851;DHT22;412;51.400;7.480;2022-07-29T03:10:53;20.10;83.30
851;DHT22;412;51.400;7.480;2022-07-29T03:13:20;20.10;83.90
851;DHT22;412;51.400;7.480;2022-07-29T03:15:47;20.10;83.90
851;DHT22;412;51.400;7.480;2022-07-29T03:18:13;20.10;84.60
851;DHT22;412;51.400;7.480;2022-07-29T03:20:40;20.10;85.40
851;DHT22;412;51.400;7.480;2022-07-29T03:23:07;20.20;86.40
851;DHT22;412;51.400;7.480;2022-07-29T03:25:33;20.20;87.00
851;DHT22;412;51.400;7.480;2022-07-29T03:27:59;20.30;86.90
851;DHT22;412;51.400;7.480;2022-07-29T03:30:25;20.30;86.10
851;DHT22;412;51.400;7.480;2022-07-29T03:32:51;20.40;86.00
851;DHT22;412;51.400;7.480;2022-07-29T03:35:17;20.40;85.30
851;DHT22;412;51.400;7.480;2022-07-29T03:37:44;20.40;84.50
851;DHT22;412;51.400;7.480;2022-07-29T03:40:17;20.40;84.10
851;DHT22;412;51.400;7.480;2022-07-29T03:42:43;20.30;84.30
851;DHT22;412;51.400;7.480;2022-07-29T03:45:17;20.30;84.40
851;DHT22;412;51.400;7.480;2022-07-29T03:47:55;20.30;84.80
851;DHT22;412;51.400;7.480;2022-07-29T03:50:22;20.30;87.60
851;DHT22;412;51.400;7.480;2022-07-29T03:52:49;20.30;87.50
851;DHT22;412;51.400;7.480;2022-07-29T03:55:15;20.40;88.70
851;DHT22;412;51.400;7.480;2022-07-29T03:57:42;20.40;86.90
851;DHT22;412;51.400;7.480;2022-07-29T04:00:08;20.40;86.30
851;DHT22;412;51.400;7.480;2022-07-29T04:02:38;20.40;85.70
851;DHT22;412;51.400;7.480;2022-07-29T04:05:04;20.40;85.50
851;DHT22;412;51.400;7.480;2022-07-29T04:07:30;20.40;85.50
851;DHT22;412;51.400;7.480;2022-07-29T04:09:55;20.30;86.50
851;DHT22;412;51.400;7.480;2022-07-29T04:12:21;20.40;86.90
851;DHT22;412;51.400;7.480;2022-07-29T04:14:47;20.40;86.80
851;DHT22;412;51.400;7.480;2022-07-29T04:17:14;20.50;87.00
851;DHT22;412;51.400;7.480;2022-07-29T04:19:39;20.50;88.40
851;DHT22;412;51.400;7.480;2022-07-29T04:22:05;20.50;88.90
851;DHT22;412;51.400;7.480;2022-07-29T04:24:31;20.50;89.00
851;DHT22;412;51.400;7.480;2022-07-29T04:26:56;20.60;89.60
851;DHT22;412;51.400;7.480;2022-07-29T04:29:25;20.60;88.70
851;DHT22;412;51.400;7.480;2022-07-29T04:31:51;20.60;89.20
851;DHT22;412;51.400;7.480;2022-07-29T04:34:17;20.60;89.40
851;DHT22;412;51.400;7.480;2022-07-29T04:36:42;20.60;89.20
851;DHT22;412;51.400;7.480;2022-07-29T04:39:08;20.50;90.00
851;DHT22;412;51.400;7.480;2022-07-29T04:41:34;20.60;90.20
851;DHT22;412;51.400;7.480;2022-07-29T04:44:00;20.60;89.30
851;DHT22;412;51.400;7.480;2022-07-29T04:46:30;20.60;89.50
851;DHT22;412;51.400;7.480;2022-07-29T04:48:56;20.60;88.90
851;DHT22;412;51.400;7.480;2022-07-29T04:51:21;20.60;88.60
851;DHT22;412;51.400;7.480;2022-07-29T04:53:47;20.60;88.60
851;DHT22;412;51.400;7.480;2022-07-29T04:56:13;20.60;89.80
851;DHT22;412;51.400;7.480;2022-07-29T04:58:38;20.60;89.80
851;DHT22;412;51.400;7.480;2022-07-29T05:01:05;20.60;90.20
851;DHT22;412;51.400;7.480;2022-07-29T05:03:30;20.60;88.10
851;DHT22;412;51.400;7.480;2022-07-29T05:05:56;20.60;89.30
851;DHT22;412;51.400;7.480;2022-07-29T05:08:22;20.60;88.10
851;DHT22;412;51.400;7.480;2022-07-29T05:10:47;20.60;87.90
851;DHT22;412;51.400;7.480;2022-07-29T05:13:13;20.60;89.10
851;DHT22;412;51.400;7.480;2022-07-29T05:15:39;20.60;89.20
851;DHT22;412;51.400;7.480;2022-07-29T05:18:07;20.60;88.50
851;DHT22;412;51.400;7.480;2022-07-29T05:20:32;20.60;88.50
851;DHT22;412;51.400;7.480;2022-07-29T05:23:00;20.60;87.00
851;DHT22;412;51.400;7.480;2022-07-29T05:25:28;20.60;88.90
851;DHT22;412;51.400;7.480;2022-07-29T05:27:54;20.70;88.20
851;DHT22;412;51.400;7.480;2022-07-29T05:30:20;20.60;88.30
851;DHT22;412;51.400;7.480;2022-07-29T05:32:47;20.60;88.30
851;DHT22;412;51.400;7.480;2022-07-29T05:35:13;20.60;87.70
851;DHT22;412;51.400;7.480;2022-07-29T05:37:40;20.60;88.50
851;DHT22;412;51.400;7.480;2022-07-29T05:40:06;20.60;88.70
851;DHT22;412;51.400;7.480;2022-07-29T05:42:32;20.60;89.10
851;DHT22;412;51.400;7.480;2022-07-29T05:44:58;20.60;89.80
851;DHT22;412;51.400;7.480;2022-07-29T05:47:24;20.60;90.00
851;DHT22;412;51.400;7.480;2022-07-29T05:49:50;20.60;90.00
851;DHT22;412;51.400;7.480;2022-07-29T05:52:16;20.60;90.20
851;DHT22;412;51.400;7.480;2022-07-29T05:54:42;20.60;90.10
851;DHT22;412;51.400;7.480;2022-07-29T05:57:08;20.60;90.20
851;DHT22;412;51.400;7.480;2022-07-29T05:59:37;20.60;90.80
851;DHT22;412;51.400;7.480;2022-07-29T06:02:03;20.60;90.40
851;DHT22;412;51.400;7.480;2022-07-29T06:04:31;20.50;89.80
851;DHT22;412;51.400;7.480;2022-07-29T06:06:57;20.50;90.60
851;DHT22;412;51.400;7.480;2022-07-29T06:09:22;20.50;90.90
851;DHT22;412;51.400;7.480;2022-07-29T06:11:48;20.50;90.80
851;DHT22;412;51.400;7.480;2022-07-29T06:14:14;20.50;90.80
851;DHT22;412;51.400;7.480;2022-07-29T06:16:40;20.50;91.00
851;DHT22;412;51.400;7.480;2022-07-29T06:19:06;20.50;90.90
851;DHT22;412;51.400;7.480;2022-07-29T06:21:32;20.60;89.90
851;DHT22;412;51.400;7.480;2022-07-29T06:23:57;20.50;89.20
851;DHT22;412;51.400;7.480;2022-07-29T06:26:23;20.50;91.80
851;DHT22;412;51.400;7.480;2022-07-29T06:28:49;20.50;91.40
851;DHT22;412;51.400;7.480;2022-07-29T06:31:14;20.50;91.30
851;DHT22;412;51.400;7.480;2022-07-29T06:33:40;20.60;91.00
851;DHT22;412;51.400;7.480;2022-07-29T06:36:06;20.60;91.90
851;DHT22;412;51.400;7.480;2022-07-29T06:38:33;20.60;90.50
851;DHT22;412;51.400;7.480;2022-07-29T06:40:59;20.40;89.70
851;DHT22;412;51.400;7.480;2022-07-29T06:43:38;20.10;90.70
851;DHT22;412;51.400;7.480;2022-07-29T06:46:06;20.00;91.30
851;DHT22;412;51.400;7.480;2022-07-29T06:48:33;20.10;90.70
851;DHT22;412;51.400;7.480;2022-07-29T06:50:59;20.10;91.10
851;DHT22;412;51.400;7.480;2022-07-29T06:53:26;20.10;90.50
851;DHT22;412;51.400;7.480;2022-07-29T06:55:52;20.20;90.60
851;DHT22;412;51.400;7.480;2022-07-29T06:58:18;20.30;90.80
851;DHT22;412;51.400;7.480;2022-07-29T07:00:46;20.30;90.70
851;DHT22;412;51.400;7.480;2022-07-29T07:03:13;20.30;89.70
851;DHT22;412;51.400;7.480;2022-07-29T07:05:39;20.20;90.20
851;DHT22;412;51.400;7.480;2022-07-29T07:08:05;20.30;90.40
851;DHT22;412;51.400;7.480;2022-07-29T07:10:31;20.30;90.00
851;DHT22;412;51.400;7.480;2022-07-29T07:12:57;20.40;90.00
851;DHT22;412;51.400;7.480;2022-07-29T07:15:23;20.40;90.40
851;DHT22;412;51.400;7.480;2022-07-29T07:17:49;20.50;90.30
851;DHT22;412;51.400;7.480;2022-07-29T07:20:16;20.60;90.30
851;DHT22;412;51.400;7.480;2022-07-29T07:22:41;20.50;89.60
851;DHT22;412;51.400;7.480;2022-07-29T07:25:07;20.60;90.40
851;DHT22;412;51.400;7.480;2022-07-29T07:27:36;20.60;90.60
851;DHT22;412;51.400;7.480;2022-07-29T07:30:06;20.70;90.00
851;DHT22;412;51.400;7.480;2022-07-29T07:32:33;20.80;90.40
851;DHT22;412;51.400;7.480;2022-07-29T07:34:59;20.80;90.00
851;DHT22;412;51.400;7.480;2022-07-29T07:37:25;20.90;90.00
851;DHT22;412;51.400;7.480;2022-07-29T07:39:52;20.90;90.20
851;DHT22;412;51.400;7.480;2022-07-29T07:42:18;21.00;90.30
851;DHT22;412;51.400;7.480;2022-07-29T07:44:47;21.00;87.70
851;DHT22;412;51.400;7.480;2022-07-29T07:47:14;21.10;88.60
851;DHT22;412;51.400;7.480;2022-07-29T07:49:40;21.10;89.80
851;DHT22;412;51.400;7.480;2022-07-29T07:52:05;21.20;89.70
851;DHT22;412;51.400;7.480;2022-07-29T07:54:31;21.20;90.40
851;DHT22;412;51.400;7.480;2022-07-29T07:56:57;21.30;90.50
851;DHT22;412;51.400;7.480;2022-07-29T07:59:23;21.30;90.10
851;DHT22;412;51.400;7.480;2022-07-29T08:01:49;21.40;90.70
851;DHT22;412;51.400;7.480;2022-07-29T08:04:15;21.50;90.80
851;DHT22;412;51.400;7.480;2022-07-29T08:06:41;21.60;90.50
851;DHT22;412;51.400;7.480;2022-07-29T08:09:07;21.80;90.50
851;DHT22;412;51.400;7.480;2022-07-29T08:11:33;21.90;89.60
851;DHT22;412;51.400;7.480;2022-07-29T08:13:59;22.00;87.20
851;DHT22;412;51.400;7.480;2022-07-29T08:16:27;22.10;87.10
851;DHT22;412;51.400;7.480;2022-07-29T08:18:53;22.20;86.10
851;DHT22;412;51.400;7.480;2022-07-29T08:21:23;22.30;85.90
851;DHT22;412;51.400;7.480;2022-07-29T08:23:50;22.40;87.00
851;DHT22;412;51.400;7.480;2022-07-29T08:26:19;22.60;83.50
851;DHT22;412;51.400;7.480;2022-07-29T08:28:46;22.70;84.50
851;DHT22;412;51.400;7.480;2022-07-29T08:31:14;22.80;82.60
851;DHT22;412;51.400;7.480;2022-07-29T08:33:40;22.90;83.20
851;DHT22;412;51.400;7.480;2022-07-29T08:36:06;23.00;85.00
851;DHT22;412;51.400;7.480;2022-07-29T08:38:36;23.00;85.00
851;DHT22;412;51.400;7.480;2022-07-29T08:41:01;23.10;85.30
851;DHT22;412;51.400;7.480;2022-07-29T08:43:30;23.10;83.60
851;DHT22;412;51.400;7.480;2022-07-29T08:45:56;23.20;85.00
851;DHT22;412;51.400;7.480;2022-07-29T08:48:23;23.20;85.60
851;DHT22;412;51.400;7.480;2022-07-29T08:50:54;23.20;85.10
851;DHT22;412;51.400;7.480;2022-07-29T08:53:21;23.20;84.10
851;DHT22;412;51.400;7.480;2022-07-29T08:55:49;23.20;86.30
851;DHT22;412;51.400;7.480;2022-07-29T08:58:16;23.30;86.20
851;DHT22;412;51.400;7.480;2022-07-29T09:00:52;23.30;85.90
851;DHT22;412;51.400;7.480;2022-07-29T09:03:20;23.30;84.50
851;DHT22;412;51.400;7.480;2022-07-29T09:05:46;23.30;80.90
851;DHT22;412;51.400;7.480;2022-07-29T09:08:16;23.30;83.00
851;DHT22;412;51.400;7.480;2022-07-29T09:10:43;23.30;83.50
851;DHT22;412;51.400;7.480;2022-07-29T09:13:09;23.40;84.00
851;DHT22;412;51.400;7.480;2022-07-29T09:15:35;23.40;84.90
851;DHT22;412;51.400;7.480;2022-07-29T09:18:01;23.40;85.00
851;DHT22;412;51.400;7.480;2022-07-29T09:20:28;23.30;84.40
851;DHT22;412;51.400;7.480;2022-07-29T09:23:13;23.30;85.50
851;DHT22;412;51.400;7.480;2022-07-29T09:25:40;23.30;85.20
851;DHT22;412;51.400;7.480;2022-07-29T09:28:14;23.30;85.90
851;DHT22;412;51.400;7.480;2022-07-29T09:30:57;23.30;86.80
851;DHT22;412;51.400;7.480;2022-07-29T09:33:34;23.50;88.30
851;DHT22;412;51.400;7.480;2022-07-29T09:36:05;23.60;86.30
851;DHT22;412;51.400;7.480;2022-07-29T09:38:32;23.60;86.00
851;DHT22;412;51.400;7.480;2022-07-29T09:41:00;23.70;85.50
851;DHT22;412;51.400;7.480;2022-07-29T09:43:26;23.70;86.60
851;DHT22;412;51.400;7.480;2022-07-29T09:45:51;23.70;87.50
851;DHT22;412;51.400;7.480;2022-07-29T09:48:20;23.80;83.80
851;DHT22;412;51.400;7.480;2022-07-29T09:50:46;23.80;84.80
851;DHT22;412;51.400;7.480;2022-07-29T09:55:56;23.80;82.40
851;DHT22;412;51.400;7.480;2022-07-29T09:58:22;23.80;82.00
851;DHT22;412;51.400;7.480;2022-07-29T10:00:49;23.80;83.00
851;DHT22;412;51.400;7.480;2022-07-29T10:03:16;23.70;82.30
851;DHT22;412;51.400;7.480;2022-07-29T10:05:42;23.80;81.70
851;DHT22;412;51.400;7.480;2022-07-29T10:08:09;23.70;83.30
851;DHT22;412;51.400;7.480;2022-07-29T10:10:40;23.70;83.70
851;DHT22;412;51.400;7.480;2022-07-29T10:13:14;23.60;85.30
851;DHT22;412;51.400;7.480;2022-07-29T10:15:41;23.60;86.30
851;DHT22;412;51.400;7.480;2022-07-29T10:18:10;23.60;86.10
851;DHT22;412;51.400;7.480;2022-07-29T10:20:39;23.50;88.00
851;DHT22;412;51.400;7.480;2022-07-29T10:23:05;23.50;88.60
851;DHT22;412;51.400;7.480;2022-07-29T10:25:31;23.40;88.40
851;DHT22;412;51.400;7.480;2022-07-29T10:27:57;23.30;88.90
851;DHT22;412;51.400;7.480;2022-07-29T10:30:24;23.20;89.90
851;DHT22;412;51.400;7.480;2022-07-29T10:38:29;23.20;90.20
851;DHT22;412;51.400;7.480;2022-07-29T10:44:04;23.10;91.00
851;DHT22;412;51.400;7.480;2022-07-29T10:46:38;23.00;90.20
851;DHT22;412;51.400;7.480;2022-07-29T10:49:07;22.90;90.50
851;DHT22;412;51.400;7.480;2022-07-29T10:57:16;22.90;91.00
851;DHT22;412;51.400;7.480;2022-07-29T11:05:09;22.90;90.80
851;DHT22;412;51.400;7.480;2022-07-29T11:07:37;22.90;90.70
851;DHT22;412;51.400;7.480;2022-07-29T11:15:07;23.10;91.70
851;DHT22;412;51.400;7.480;2022-07-29T11:23:32;23.40;91.50
851;DHT22;412;51.400;7.480;2022-07-29T11:26:20;23.50;91.30
851;DHT22;412;51.400;7.480;2022-07-29T11:39:34;24.10;90.60
851;DHT22;412;51.400;7.480;2022-07-29T11:47:22;24.40;90.30
851;DHT22;412;51.400;7.480;2022-07-29T11:49:49;24.50;89.90
851;DHT22;412;51.400;7.480;2022-07-29T11:52:17;24.50;90.80
851;DHT22;412;51.400;7.480;2022-07-29T11:54:43;24.60;90.10
851;DHT22;412;51.400;7.480;2022-07-29T11:57:09;24.60;90.90
851;DHT22;412;51.400;7.480;2022-07-29T11:59:42;24.60;90.80
851;DHT22;412;51.400;7.480;2022-07-29T12:02:08;24.60;89.90
851;DHT22;412;51.400;7.480;2022-07-29T12:04:54;24.60;89.00
851;DHT22;412;51.400;7.480;2022-07-29T12:07:30;24.50;90.00
851;DHT22;412;51.400;7.480;2022-07-29T12:09:56;24.40;89.30
851;DHT22;412;51.400;7.480;2022-07-29T12:12:22;24.40;89.10
851;DHT22;412;51.400;7.480;2022-07-29T12:14:48;24.40;88.30
851;DHT22;412;51.400;7.480;2022-07-29T12:17:33;24.40;88.80
851;DHT22;412;51.400;7.480;2022-07-29T12:20:02;24.30;88.40
851;DHT22;412;51.400;7.480;2022-07-29T12:22:36;24.30;89.80
851;DHT22;412;51.400;7.480;2022-07-29T12:25:08;24.30;90.40
851;DHT22;412;51.400;7.480;2022-07-29T12:27:35;24.20;90.30
851;DHT22;412;51.400;7.480;2022-07-29T12:30:06;24.20;89.50
851;DHT22;412;51.400;7.480;2022-07-29T12:32:34;24.20;90.10
851;DHT22;412;51.400;7.480;2022-07-29T12:35:07;24.10;90.50
851;DHT22;412;51.400;7.480;2022-07-29T12:37:38;24.10;91.10
851;DHT22;412;51.400;7.480;2022-07-29T12:40:05;24.10;90.70
851;DHT22;412;51.400;7.480;2022-07-29T12:42:34;24.10;91.40
851;DHT22;412;51.400;7.480;2022-07-29T12:45:01;24.20;90.40
851;DHT22;412;51.400;7.480;2022-07-29T12:47:30;24.20;89.50
851;DHT22;412;51.400;7.480;2022-07-29T12:50:14;24.20;90.00
851;DHT22;412;51.400;7.480;2022-07-29T12:52:45;24.30;90.30
851;DHT22;412;51.400;7.480;2022-07-29T12:55:11;24.30;90.80
851;DHT22;412;51.400;7.480;2022-07-29T12:57:47;24.20;90.10
851;DHT22;412;51.400;7.480;2022-07-29T13:00:14;24.10;90.30
851;DHT22;412;51.400;7.480;2022-07-29T13:02:41;24.10;90.40
851;DHT22;412;51.400;7.480;2022-07-29T13:05:09;24.00;90.60
851;DHT22;412;51.400;7.480;2022-07-29T13:07:36;24.00;91.10
851;DHT22;412;51.400;7.480;2022-07-29T13:10:20;24.00;91.00
851;DHT22;412;51.400;7.480;2022-07-29T13:13:07;23.90;90.50
851;DHT22;412;51.400;7.480;2022-07-29T13:15:39;23.90;90.80
851;DHT22;412;51.400;7.480;2022-07-29T13:18:18;23.90;90.90
851;DHT22;412;51.400;7.480;2022-07-29T13:20:53;24.10;91.10
851;DHT22;412;51.400;7.480;2022-07-29T13:23:19;24.20;91.00
851;DHT22;412;51.400;7.480;2022-07-29T13:25:45;24.30;91.00
851;DHT22;412;51.400;7.480;2022-07-29T13:28:11;24.50;90.80
851;DHT22;412;51.400;7.480;2022-07-29T13:30:38;24.70;89.90
851;DHT22;412;51.400;7.480;2022-07-29T13:33:04;24.80;89.90
851;DHT22;412;51.400;7.480;2022-07-29T13:35:30;24.90;89.20
851;DHT22;412;51.400;7.480;2022-07-29T13:37:56;25.10;88.80
851;DHT22;412;51.400;7.480;2022-07-29T13:40:21;25.30;88.00
851;DHT22;412;51.400;7.480;2022-07-29T13:42:47;25.30;89.60
851;DHT22;412;51.400;7.480;2022-07-29T13:45:13;25.50;88.80
851;DHT22;412;51.400;7.480;2022-07-29T13:47:39;25.60;88.80
851;DHT22;412;51.400;7.480;2022-07-29T13:50:06;25.80;88.10
851;DHT22;412;51.400;7.480;2022-07-29T13:52:32;25.90;86.10
851;DHT22;412;51.400;7.480;2022-07-29T13:54:58;25.90;84.80
851;DHT22;412;51.400;7.480;2022-07-29T13:57:24;25.70;86.40
851;DHT22;412;51.400;7.480;2022-07-29T13:59:50;25.30;87.50
851;DHT22;412;51.400;7.480;2022-07-29T14:02:16;25.00;87.90
851;DHT22;412;51.400;7.480;2022-07-29T14:04:43;24.70;88.70
851;DHT22;412;51.400;7.480;2022-07-29T14:07:08;24.60;88.80
851;DHT22;412;51.400;7.480;2022-07-29T14:09:35;24.70;90.50
851;DHT22;412;51.400;7.480;2022-07-29T14:12:01;24.70;88.10
851;DHT22;412;51.400;7.480;2022-07-29T14:14:28;24.60;88.50
851;DHT22;412;51.400;7.480;2022-07-29T14:16:54;24.50;88.10
851;DHT22;412;51.400;7.480;2022-07-29T14:19:20;24.40;88.30
851;DHT22;412;51.400;7.480;2022-07-29T14:21:45;24.40;89.00
851;DHT22;412;51.400;7.480;2022-07-29T14:24:11;24.50;88.80
851;DHT22;412;51.400;7.480;2022-07-29T14:26:37;24.50;89.00
851;DHT22;412;51.400;7.480;2022-07-29T14:29:03;24.70;88.70
851;DHT22;412;51.400;7.480;2022-07-29T14:31:28;24.80;88.40
851;DHT22;412;51.400;7.480;2022-07-29T14:33:54;24.90;88.40
851;DHT22;412;51.400;7.480;2022-07-29T14:36:20;25.00;89.10
851;DHT22;412;51.400;7.480;2022-07-29T14:38:45;25.10;88.70
851;DHT22;412;51.400;7.480;2022-07-29T14:41:11;25.20;87.90
851;DHT22;412;51.400;7.480;2022-07-29T14:43:37;25.30;86.60
851;DHT22;412;51.400;7.480;2022-07-29T14:46:03;25.50;86.50
851;DHT22;412;51.400;7.480;2022-07-29T14:48:28;25.50;85.90
851;DHT22;412;51.400;7.480;2022-07-29T14:50:54;25.60;86.10
851;DHT22;412;51.400;7.480;2022-07-29T14:53:21;25.60;85.60
851;DHT22;412;51.400;7.480;2022-07-29T14:55:47;25.70;86.30
851;DHT22;412;51.400;7.480;2022-07-29T14:58:13;25.80;86.40
851;DHT22;412;51.400;7.480;2022-07-29T15:00:39;25.80;83.70
851;DHT22;412;51.400;7.480;2022-07-29T15:03:05;25.80;82.60
851;DHT22;412;51.400;7.480;2022-07-29T15:05:31;25.80;83.00
851;DHT22;412;51.400;7.480;2022-07-29T15:07:58;25.90;83.40
851;DHT22;412;51.400;7.480;2022-07-29T15:10:24;25.90;83.20
851;DHT22;412;51.400;7.480;2022-07-29T15:12:52;25.90;83.40
851;DHT22;412;51.400;7.480;2022-07-29T15:15:18;26.00;83.20
851;DHT22;412;51.400;7.480;2022-07-29T15:17:44;26.10;83.70
851;DHT22;412;51.400;7.480;2022-07-29T15:20:12;26.20;83.30
851;DHT22;412;51.400;7.480;2022-07-29T15:22:38;26.20;79.80
851;DHT22;412;51.400;7.480;2022-07-29T15:25:05;26.30;81.00
851;DHT22;412;51.400;7.480;2022-07-29T15:27:31;26.40;80.40
851;DHT22;412;51.400;7.480;2022-07-29T15:29:56;26.40;81.30
851;DHT22;412;51.400;7.480;2022-07-29T15:32:22;26.50;79.90
851;DHT22;412;51.400;7.480;2022-07-29T15:34:48;26.40;80.40
851;DHT22;412;51.400;7.480;2022-07-29T15:37:14;26.40;79.00
851;DHT22;412;51.400;7.480;2022-07-29T15:39:40;26.30;79.80
851;DHT22;412;51.400;7.480;2022-07-29T15:42:06;26.30;79.90
851;DHT22;412;51.400;7.480;2022-07-29T15:44:31;26.20;79.50
851;DHT22;412;51.400;7.480;2022-07-29T15:46:57;26.10;80.50
851;DHT22;412;51.400;7.480;2022-07-29T15:49:30;26.00;80.70
851;DHT22;412;51.400;7.480;2022-07-29T15:52:01;25.90;81.80
851;DHT22;412;51.400;7.480;2022-07-29T15:54:28;25.90;81.90
851;DHT22;412;51.400;7.480;2022-07-29T15:56:54;25.80;81.50
851;DHT22;412;51.400;7.480;2022-07-29T15:59:20;25.70;82.50
851;DHT22;412;51.400;7.480;2022-07-29T16:01:46;25.70;84.10
851;DHT22;412;51.400;7.480;2022-07-29T16:04:15;25.60;85.10
851;DHT22;412;51.400;7.480;2022-07-29T16:06:42;25.60;86.60
851;DHT22;412;51.400;7.480;2022-07-29T16:09:08;25.50;84.90
851;DHT22;412;51.400;7.480;2022-07-29T16:11:34;25.40;84.90
851;DHT22;412;51.400;7.480;2022-07-29T16:14:00;25.40;85.50
851;DHT22;412;51.400;7.480;2022-07-29T16:16:26;25.40;85.00
851;DHT22;412;51.400;7.480;2022-07-29T16:18:52;25.40;85.60
851;DHT22;412;51.400;7.480;2022-07-29T16:21:18;25.40;85.40
851;DHT22;412;51.400;7.480;2022-07-29T16:23:43;25.30;84.90
851;DHT22;412;51.400;7.480;2022-07-29T16:26:12;25.30;85.10
851;DHT22;412;51.400;7.480;2022-07-29T16:28:38;25.30;84.90
851;DHT22;412;51.400;7.480;2022-07-29T16:31:04;25.30;84.90
851;DHT22;412;51.400;7.480;2022-07-29T16:33:29;25.20;85.00
851;DHT22;412;51.400;7.480;2022-07-29T16:35:55;25.10;84.90
851;DHT22;412;51.400;7.480;2022-07-29T16:38:21;25.10;85.10
851;DHT22;412;51.400;7.480;2022-07-29T16:40:47;25.00;87.30
851;DHT22;412;51.400;7.480;2022-07-29T16:43:12;25.00;86.60
851;DHT22;412;51.400;7.480;2022-07-29T16:45:38;25.00;86.20
851;DHT22;412;51.400;7.480;2022-07-29T16:48:04;25.00;85.30
851;DHT22;412;51.400;7.480;2022-07-29T16:50:30;24.90;86.20
851;DHT22;412;51.400;7.480;2022-07-29T16:52:57;24.90;87.30
851;DHT22;412;51.400;7.480;2022-07-29T16:55:23;24.90;85.40
851;DHT22;412;51.400;7.480;2022-07-29T16:57:49;24.90;85.20
851;DHT22;412;51.400;7.480;2022-07-29T17:00:18;24.90;85.70
851;DHT22;412;51.400;7.480;2022-07-29T17:02:44;24.90;86.10
851;DHT22;412;51.400;7.480;2022-07-29T17:05:10;24.90;86.30
851;DHT22;412;51.400;7.480;2022-07-29T17:07:37;24.90;86.20
851;DHT22;412;51.400;7.480;2022-07-29T17:10:04;24.90;86.00
851;DHT22;412;51.400;7.480;2022-07-29T17:12:32;24.90;85.60
851;DHT22;412;51.400;7.480;2022-07-29T17:14:59;24.80;86.00
851;DHT22;412;51.400;7.480;2022-07-29T17:17:25;24.80;85.10
851;DHT22;412;51.400;7.480;2022-07-29T17:19:50;24.70;84.40
851;DHT22;412;51.400;7.480;2022-07-29T17:22:16;24.70;85.10
851;DHT22;412;51.400;7.480;2022-07-29T17:24:42;24.70;86.00
851;DHT22;412;51.400;7.480;2022-07-29T17:27:09;24.70;88.00
851;DHT22;412;51.400;7.480;2022-07-29T17:29:34;24.70;87.80
851;DHT22;412;51.400;7.480;2022-07-29T17:32:00;24.70;87.70
851;DHT22;412;51.400;7.480;2022-07-29T17:34:26;24.70;87.20
851;DHT22;412;51.400;7.480;2022-07-29T17:36:52;24.70;86.20
851;DHT22;412;51.400;7.480;2022-07-29T17:39:18;24.70;86.50